Terminal Aerodrome Forecast
Issued by NWS Sterling, VA

Current Version | Previous Version | Graphics & Text | Print | Product List | Glossary On
Versions: 1 2 3 4 5 6 7 8 9 10 11 12 13 14 15 16 17 18 19 20 21 22 23 24 25 26 27 28 29 30 31
000
FTUS41 KLWX 290945 AAB
TAFIAD
TAF AMD
KIAD 290945Z 2910/3012 00000KT 3/4SM BR SCT002 BKN008
     FM291200 VRB03KT 3SM BR SCT030
     FM291230 19005KT P6SM SCT040
     FM291500 18005KT P6SM BKN045
     FM300200 17006KT P6SM BKN100=

USA.gov is the U.S. government's official web portal to all federal, state and local government web resources and services.